Hovedside
METAR-TAF:

METAR-TAF

Lufthavner :

Lampang, Thailand

breddegrad: 18-17N, lengdegrad: 099-31E, høyde over havet: 241 m

Gjeldene værobservasjon

Denne rapporten ble laget for 1 time og 0 minutter siden, klokken 01:00 UTC
Vind 1 kt fra skiftende retning
Temperatur 29°C
Luftfuktighet 74%
Trykk 1005 hPa
Sikt 10 km eller mer
ingen skyer under 1500 m og ingen bygeskyer

METAR: VTCL 220100Z VRB01KT CAVOK 29/24 Q1005 NOSIG

Tid: 09:00 (02:00 UTC)

Varsel

Denne rapporten ble laget for 3 timer og 0 minutter siden, klokken 23:00 UTC
Varsel gyldig fra 22. klokken 00 UTC til 22. klokken 24 UTC
Vind 5 kt fra Sørvest
Sikt 10 km eller mer
Spredte skyer i en høyde av 3000 ft
Midlertidig
fra 22. klokken 09 UTC til 22. klokken 12 UTC
Få skyer i en høyde av 2000 ft, Bygeskyer.
Brutte skyer i en høyde av 3000 ft
torden, lett regn,

TAF: VTCL 212300Z 2200/2224 22005KT 9999 SCT030 TEMPO 2209/2212 -TSRA FEW020CB BKN030

Værobservasjoner og værvarsel for over 4000 flyplasser (METAR- og TAF-rapporter).

Tilgjengelige stasjoner er representert av de røde og gule prikkene på kartet.

Hold musepekeren over prikken for å se navnet på stasjonen.

Klikk så for å se værobservasjoner og -varsler.

For å forandre kartet kan du klikke på den grønne knappen med svart kryss for å zoome inn, på den grønne knappen med strek for å zoome ut, eller på de grønne pilene for å se tilstøtende kart.


METAR-TAF: